Clarkedale, Arkansas
Current Conditions -  °F | °C
As of 10:53 AM on Thursday 30 Oct 2014 (Local Time) from KAWM Reporting Station
Clear Clear  
Wind Chill: 60°   Ceiling: Unl
Heat Index: 60°   Visibility: 10mi
Dew Point: 45°   Wind: 3mph
Humidity: 57%   Direction: NA
Pressure: 30.16"   Gusts: NA
Location:  35.31°N, 90.24°W
Report Text: KAWM 301553Z AUTO VRB03KT 10SM CLR 16/07 A3016 RMK AO2 SLP212 T01560072
Loading
Personal Weather Stations






























Interactive Weather Map
Tropical Storm Tracking
New forecast layout! Learn more

10-Day Weather Forecast

Advertisements
Track Severe Weather on mobile